sensor_id;sensor_type;location;lat;lon;timestamp;P1;durP1;ratioP1;P2;durP2;ratioP2
31298;SDS011;17927;52.350;13.402;2023-04-25T00:00:53;4.25;;;1.70;;
31298;SDS011;17927;52.350;13.402;2023-04-25T00:03:18;2.40;;;1.70;;
31298;SDS011;17927;52.350;13.402;2023-04-25T00:05:44;3.20;;;2.00;;
31298;SDS011;17927;52.350;13.402;2023-04-25T00:08:10;3.97;;;1.83;;
31298;SDS011;17927;52.350;13.402;2023-04-25T00:10:36;5.03;;;1.50;;
31298;SDS011;17927;52.350;13.402;2023-04-25T00:13:01;5.78;;;2.83;;
31298;SDS011;17927;52.350;13.402;2023-04-25T00:15:27;4.07;;;2.05;;
31298;SDS011;17927;52.350;13.402;2023-04-25T00:17:54;4.75;;;1.80;;
31298;SDS011;17927;52.350;13.402;2023-04-25T00:20:20;5.40;;;1.90;;
31298;SDS011;17927;52.350;13.402;2023-04-25T00:22:45;3.08;;;1.63;;
31298;SDS011;17927;52.350;13.402;2023-04-25T00:25:10;2.20;;;1.52;;
31298;SDS011;17927;52.350;13.402;2023-04-25T00:27:36;3.20;;;2.40;;
31298;SDS011;17927;52.350;13.402;2023-04-25T00:30:01;6.55;;;1.80;;
31298;SDS011;17927;52.350;13.402;2023-04-25T00:32:27;3.30;;;1.88;;
31298;SDS011;17927;52.350;13.402;2023-04-25T00:34:52;5.10;;;2.08;;
31298;SDS011;17927;52.350;13.402;2023-04-25T00:37:18;5.50;;;1.60;;
31298;SDS011;17927;52.350;13.402;2023-04-25T00:39:43;2.88;;;1.70;;
31298;SDS011;17927;52.350;13.402;2023-04-25T00:42:08;5.55;;;2.47;;
31298;SDS011;17927;52.350;13.402;2023-04-25T00:44:35;4.78;;;2.38;;
31298;SDS011;17927;52.350;13.402;2023-04-25T00:47:01;4.05;;;2.10;;
31298;SDS011;17927;52.350;13.402;2023-04-25T00:49:26;3.03;;;2.20;;
31298;SDS011;17927;52.350;13.402;2023-04-25T00:51:52;4.15;;;2.88;;
31298;SDS011;17927;52.350;13.402;2023-04-25T00:54:17;7.40;;;2.80;;
31298;SDS011;17927;52.350;13.402;2023-04-25T00:56:42;6.90;;;2.35;;
31298;SDS011;17927;52.350;13.402;2023-04-25T00:59:10;4.40;;;2.58;;
31298;SDS011;17927;52.350;13.402;2023-04-25T01:01:35;4.50;;;2.97;;
31298;SDS011;17927;52.350;13.402;2023-04-25T01:04:01;3.65;;;2.40;;
31298;SDS011;17927;52.350;13.402;2023-04-25T01:06:26;12.27;;;2.92;;
31298;SDS011;17927;52.350;13.402;2023-04-25T01:08:52;3.17;;;2.83;;
31298;SDS011;17927;52.350;13.402;2023-04-25T01:11:18;5.38;;;2.13;;
31298;SDS011;17927;52.350;13.402;2023-04-25T01:13:43;4.40;;;2.03;;
31298;SDS011;17927;52.350;13.402;2023-04-25T01:16:08;6.63;;;2.38;;
31298;SDS011;17927;52.350;13.402;2023-04-25T01:18:33;5.10;;;2.28;;
31298;SDS011;17927;52.350;13.402;2023-04-25T01:21:08;4.43;;;2.30;;
31298;SDS011;17927;52.350;13.402;2023-04-25T01:23:35;4.72;;;2.63;;
31298;SDS011;17927;52.350;13.402;2023-04-25T01:26:01;4.35;;;2.40;;
31298;SDS011;17927;52.350;13.402;2023-04-25T01:28:27;3.60;;;2.00;;
31298;SDS011;17927;52.350;13.402;2023-04-25T01:30:53;4.35;;;2.05;;
31298;SDS011;17927;52.350;13.402;2023-04-25T01:33:19;2.35;;;2.15;;
31298;SDS011;17927;52.350;13.402;2023-04-25T01:35:46;5.20;;;2.17;;
31298;SDS011;17927;52.350;13.402;2023-04-25T01:38:12;4.38;;;1.98;;
31298;SDS011;17927;52.350;13.402;2023-04-25T01:40:38;4.90;;;2.08;;
31298;SDS011;17927;52.350;13.402;2023-04-25T01:43:04;3.47;;;2.00;;
31298;SDS011;17927;52.350;13.402;2023-04-25T01:45:30;5.20;;;2.53;;
31298;SDS011;17927;52.350;13.402;2023-04-25T01:47:55;5.07;;;2.50;;
31298;SDS011;17927;52.350;13.402;2023-04-25T01:50:24;4.70;;;2.45;;
31298;SDS011;17927;52.350;13.402;2023-04-25T01:52:49;4.50;;;2.58;;
31298;SDS011;17927;52.350;13.402;2023-04-25T01:55:15;4.88;;;2.50;;
31298;SDS011;17927;52.350;13.402;2023-04-25T01:57:40;2.97;;;2.30;;
31298;SDS011;17927;52.350;13.402;2023-04-25T02:00:06;4.32;;;3.05;;
31298;SDS011;17927;52.350;13.402;2023-04-25T02:02:32;6.78;;;3.22;;
31298;SDS011;17927;52.350;13.402;2023-04-25T02:04:57;5.00;;;2.58;;
31298;SDS011;17927;52.350;13.402;2023-04-25T02:07:22;3.83;;;2.17;;
31298;SDS011;17927;52.350;13.402;2023-04-25T02:09:47;4.38;;;2.45;;
31298;SDS011;17927;52.350;13.402;2023-04-25T02:12:13;4.50;;;3.03;;
31298;SDS011;17927;52.350;13.402;2023-04-25T02:14:38;4.50;;;2.85;;
31298;SDS011;17927;52.350;13.402;2023-04-25T02:17:03;4.53;;;2.58;;
31298;SDS011;17927;52.350;13.402;2023-04-25T02:19:29;6.18;;;2.70;;
31298;SDS011;17927;52.350;13.402;2023-04-25T02:21:54;3.75;;;2.80;;
31298;SDS011;17927;52.350;13.402;2023-04-25T02:24:20;3.55;;;2.55;;
31298;SDS011;17927;52.350;13.402;2023-04-25T02:26:45;3.55;;;2.88;;
31298;SDS011;17927;52.350;13.402;2023-04-25T02:29:11;8.95;;;2.85;;
31298;SDS011;17927;52.350;13.402;2023-04-25T02:31:43;5.55;;;3.22;;
31298;SDS011;17927;52.350;13.402;2023-04-25T02:34:08;4.13;;;3.20;;
31298;SDS011;17927;52.350;13.402;2023-04-25T02:36:33;4.10;;;2.83;;
31298;SDS011;17927;52.350;13.402;2023-04-25T02:39:00;3.80;;;2.80;;
31298;SDS011;17927;52.350;13.402;2023-04-25T02:41:26;6.85;;;2.90;;
31298;SDS011;17927;52.350;13.402;2023-04-25T02:43:52;3.88;;;2.60;;
31298;SDS011;17927;52.350;13.402;2023-04-25T02:46:17;7.25;;;2.88;;
31298;SDS011;17927;52.350;13.402;2023-04-25T02:48:42;5.55;;;2.75;;
31298;SDS011;17927;52.350;13.402;2023-04-25T02:51:08;4.40;;;2.75;;
31298;SDS011;17927;52.350;13.402;2023-04-25T02:53:33;3.97;;;2.67;;
31298;SDS011;17927;52.350;13.402;2023-04-25T02:55:59;8.63;;;3.05;;
31298;SDS011;17927;52.350;13.402;2023-04-25T02:58:24;8.82;;;3.47;;
31298;SDS011;17927;52.350;13.402;2023-04-25T03:00:49;7.18;;;2.80;;
31298;SDS011;17927;52.350;13.402;2023-04-25T03:03:15;6.45;;;3.25;;
31298;SDS011;17927;52.350;13.402;2023-04-25T03:05:42;5.30;;;2.95;;
31298;SDS011;17927;52.350;13.402;2023-04-25T03:08:08;4.15;;;2.70;;
31298;SDS011;17927;52.350;13.402;2023-04-25T03:10:33;6.75;;;3.55;;
31298;SDS011;17927;52.350;13.402;2023-04-25T03:12:58;5.78;;;3.22;;
31298;SDS011;17927;52.350;13.402;2023-04-25T03:15:24;5.20;;;2.90;;
31298;SDS011;17927;52.350;13.402;2023-04-25T03:17:49;4.97;;;2.92;;
31298;SDS011;17927;52.350;13.402;2023-04-25T03:20:14;4.80;;;2.50;;
31298;SDS011;17927;52.350;13.402;2023-04-25T03:22:39;4.93;;;2.78;;
31298;SDS011;17927;52.350;13.402;2023-04-25T03:25:05;5.25;;;2.67;;
31298;SDS011;17927;52.350;13.402;2023-04-25T03:27:30;5.55;;;2.85;;
31298;SDS011;17927;52.350;13.402;2023-04-25T03:29:56;6.40;;;3.00;;
31298;SDS011;17927;52.350;13.402;2023-04-25T03:32:21;3.28;;;2.53;;
31298;SDS011;17927;52.350;13.402;2023-04-25T03:34:46;6.60;;;2.90;;
31298;SDS011;17927;52.350;13.402;2023-04-25T03:37:12;7.03;;;2.83;;
31298;SDS011;17927;52.350;13.402;2023-04-25T03:39:37;4.88;;;3.20;;
31298;SDS011;17927;52.350;13.402;2023-04-25T03:42:03;8.57;;;2.80;;
31298;SDS011;17927;52.350;13.402;2023-04-25T03:44:28;3.05;;;2.75;;
31298;SDS011;17927;52.350;13.402;2023-04-25T03:46:53;6.18;;;2.83;;
31298;SDS011;17927;52.350;13.402;2023-04-25T03:49:19;8.35;;;3.22;;
31298;SDS011;17927;52.350;13.402;2023-04-25T03:51:44;6.35;;;2.70;;
31298;SDS011;17927;52.350;13.402;2023-04-25T03:54:09;7.15;;;3.47;;
31298;SDS011;17927;52.350;13.402;2023-04-25T03:56:35;5.38;;;3.42;;
31298;SDS011;17927;52.350;13.402;2023-04-25T03:59:00;8.98;;;2.78;;
31298;SDS011;17927;52.350;13.402;2023-04-25T04:01:25;5.22;;;3.50;;
31298;SDS011;17927;52.350;13.402;2023-04-25T04:03:50;4.88;;;3.40;;
31298;SDS011;17927;52.350;13.402;2023-04-25T04:06:16;4.97;;;3.08;;
31298;SDS011;17927;52.350;13.402;2023-04-25T04:08:41;7.88;;;3.63;;
31298;SDS011;17927;52.350;13.402;2023-04-25T04:11:06;6.38;;;3.20;;
31298;SDS011;17927;52.350;13.402;2023-04-25T04:13:32;4.95;;;2.92;;
31298;SDS011;17927;52.350;13.402;2023-04-25T04:15:57;5.13;;;3.30;;
31298;SDS011;17927;52.350;13.402;2023-04-25T04:18:22;4.47;;;3.38;;
31298;SDS011;17927;52.350;13.402;2023-04-25T04:20:48;8.40;;;4.05;;
31298;SDS011;17927;52.350;13.402;2023-04-25T04:23:13;12.30;;;4.00;;
31298;SDS011;17927;52.350;13.402;2023-04-25T04:25:38;6.22;;;3.13;;
31298;SDS011;17927;52.350;13.402;2023-04-25T04:28:05;3.95;;;3.15;;
31298;SDS011;17927;52.350;13.402;2023-04-25T04:30:30;7.28;;;3.78;;
31298;SDS011;17927;52.350;13.402;2023-04-25T04:32:56;4.82;;;3.47;;
31298;SDS011;17927;52.350;13.402;2023-04-25T04:35:22;5.15;;;3.45;;
31298;SDS011;17927;52.350;13.402;2023-04-25T04:37:48;12.15;;;3.40;;
31298;SDS011;17927;52.350;13.402;2023-04-25T04:40:14;8.52;;;4.53;;
31298;SDS011;17927;52.350;13.402;2023-04-25T04:42:42;7.75;;;3.97;;
31298;SDS011;17927;52.350;13.402;2023-04-25T04:45:10;9.15;;;5.82;;
31298;SDS011;17927;52.350;13.402;2023-04-25T04:47:36;11.32;;;4.25;;
31298;SDS011;17927;52.350;13.402;2023-04-25T04:50:01;6.32;;;3.42;;
31298;SDS011;17927;52.350;13.402;2023-04-25T04:52:33;9.23;;;3.55;;
31298;SDS011;17927;52.350;13.402;2023-04-25T04:54:58;6.22;;;3.53;;
31298;SDS011;17927;52.350;13.402;2023-04-25T04:57:24;4.47;;;3.38;;
31298;SDS011;17927;52.350;13.402;2023-04-25T04:59:49;4.80;;;2.92;;
31298;SDS011;17927;52.350;13.402;2023-04-25T05:02:15;7.50;;;3.53;;
31298;SDS011;17927;52.350;13.402;2023-04-25T05:04:40;7.75;;;3.75;;
31298;SDS011;17927;52.350;13.402;2023-04-25T05:07:05;6.03;;;3.90;;
31298;SDS011;17927;52.350;13.402;2023-04-25T05:09:31;5.97;;;3.55;;
31298;SDS011;17927;52.350;13.402;2023-04-25T05:11:56;6.85;;;3.20;;
31298;SDS011;17927;52.350;13.402;2023-04-25T05:14:22;5.88;;;3.63;;
31298;SDS011;17927;52.350;13.402;2023-04-25T05:16:48;6.03;;;4.28;;
31298;SDS011;17927;52.350;13.402;2023-04-25T05:19:13;6.65;;;3.70;;
31298;SDS011;17927;52.350;13.402;2023-04-25T05:21:38;8.32;;;4.20;;
31298;SDS011;17927;52.350;13.402;2023-04-25T05:24:04;7.28;;;4.38;;
31298;SDS011;17927;52.350;13.402;2023-04-25T05:26:29;8.55;;;4.00;;
31298;SDS011;17927;52.350;13.402;2023-04-25T05:28:58;6.30;;;3.50;;
31298;SDS011;17927;52.350;13.402;2023-04-25T05:31:23;9.35;;;4.28;;
31298;SDS011;17927;52.350;13.402;2023-04-25T05:33:49;6.97;;;3.78;;
31298;SDS011;17927;52.350;13.402;2023-04-25T05:36:14;10.70;;;3.95;;
31298;SDS011;17927;52.350;13.402;2023-04-25T05:38:39;7.65;;;4.47;;
31298;SDS011;17927;52.350;13.402;2023-04-25T05:41:04;8.38;;;3.53;;
31298;SDS011;17927;52.350;13.402;2023-04-25T05:43:30;7.35;;;3.63;;
31298;SDS011;17927;52.350;13.402;2023-04-25T05:45:55;8.00;;;3.55;;
31298;SDS011;17927;52.350;13.402;2023-04-25T05:48:20;10.25;;;3.95;;
31298;SDS011;17927;52.350;13.402;2023-04-25T05:50:46;10.27;;;3.97;;
31298;SDS011;17927;52.350;13.402;2023-04-25T05:53:11;7.47;;;3.72;;
31298;SDS011;17927;52.350;13.402;2023-04-25T05:55:36;6.38;;;4.00;;
31298;SDS011;17927;52.350;13.402;2023-04-25T05:58:02;5.35;;;3.53;;
31298;SDS011;17927;52.350;13.402;2023-04-25T06:00:27;5.32;;;3.90;;
31298;SDS011;17927;52.350;13.402;2023-04-25T06:02:52;4.68;;;3.28;;
31298;SDS011;17927;52.350;13.402;2023-04-25T06:05:17;4.90;;;3.22;;
31298;SDS011;17927;52.350;13.402;2023-04-25T06:07:43;5.70;;;3.53;;
31298;SDS011;17927;52.350;13.402;2023-04-25T06:10:08;6.80;;;4.20;;
31298;SDS011;17927;52.350;13.402;2023-04-25T06:12:34;12.90;;;4.75;;
31298;SDS011;17927;52.350;13.402;2023-04-25T06:14:59;6.00;;;4.00;;
31298;SDS011;17927;52.350;13.402;2023-04-25T06:17:25;7.80;;;5.07;;
31298;SDS011;17927;52.350;13.402;2023-04-25T06:19:50;10.70;;;4.15;;
31298;SDS011;17927;52.350;13.402;2023-04-25T06:22:15;7.63;;;4.50;;
31298;SDS011;17927;52.350;13.402;2023-04-25T06:24:41;8.20;;;4.15;;
31298;SDS011;17927;52.350;13.402;2023-04-25T06:27:06;7.28;;;4.32;;
31298;SDS011;17927;52.350;13.402;2023-04-25T06:29:31;10.25;;;4.00;;
31298;SDS011;17927;52.350;13.402;2023-04-25T06:31:56;9.90;;;4.43;;
31298;SDS011;17927;52.350;13.402;2023-04-25T06:34:22;7.75;;;3.92;;
31298;SDS011;17927;52.350;13.402;2023-04-25T06:36:47;6.28;;;4.15;;
31298;SDS011;17927;52.350;13.402;2023-04-25T06:39:12;5.78;;;4.15;;
31298;SDS011;17927;52.350;13.402;2023-04-25T06:41:38;7.97;;;3.38;;
31298;SDS011;17927;52.350;13.402;2023-04-25T06:44:03;6.43;;;3.75;;
31298;SDS011;17927;52.350;13.402;2023-04-25T06:46:28;10.38;;;4.20;;
31298;SDS011;17927;52.350;13.402;2023-04-25T06:48:54;8.90;;;5.18;;
31298;SDS011;17927;52.350;13.402;2023-04-25T06:51:19;5.82;;;3.80;;
31298;SDS011;17927;52.350;13.402;2023-04-25T06:53:44;6.85;;;3.78;;
31298;SDS011;17927;52.350;13.402;2023-04-25T06:56:09;8.65;;;4.07;;
31298;SDS011;17927;52.350;13.402;2023-04-25T06:58:35;6.53;;;3.28;;
31298;SDS011;17927;52.350;13.402;2023-04-25T07:01:00;4.85;;;3.75;;
31298;SDS011;17927;52.350;13.402;2023-04-25T07:03:25;3.88;;;3.35;;
31298;SDS011;17927;52.350;13.402;2023-04-25T07:05:50;7.00;;;3.53;;
31298;SDS011;17927;52.350;13.402;2023-04-25T07:08:16;4.13;;;3.05;;
31298;SDS011;17927;52.350;13.402;2023-04-25T07:10:41;7.72;;;3.33;;
31298;SDS011;17927;52.350;13.402;2023-04-25T07:13:07;4.93;;;3.15;;
31298;SDS011;17927;52.350;13.402;2023-04-25T07:15:32;4.55;;;3.35;;
31298;SDS011;17927;52.350;13.402;2023-04-25T07:17:57;4.13;;;3.03;;
31298;SDS011;17927;52.350;13.402;2023-04-25T07:20:23;7.15;;;3.85;;
31298;SDS011;17927;52.350;13.402;2023-04-25T07:22:48;7.53;;;3.42;;
31298;SDS011;17927;52.350;13.402;2023-04-25T07:25:14;7.28;;;3.75;;
31298;SDS011;17927;52.350;13.402;2023-04-25T07:27:40;5.40;;;3.17;;
31298;SDS011;17927;52.350;13.402;2023-04-25T07:30:05;6.53;;;3.55;;
31298;SDS011;17927;52.350;13.402;2023-04-25T07:32:31;8.95;;;3.45;;
31298;SDS011;17927;52.350;13.402;2023-04-25T07:34:56;7.47;;;3.25;;
31298;SDS011;17927;52.350;13.402;2023-04-25T07:37:22;4.57;;;2.55;;
31298;SDS011;17927;52.350;13.402;2023-04-25T07:39:48;8.02;;;3.40;;
31298;SDS011;17927;52.350;13.402;2023-04-25T07:42:13;5.75;;;2.75;;
31298;SDS011;17927;52.350;13.402;2023-04-25T07:44:38;7.60;;;2.60;;
31298;SDS011;17927;52.350;13.402;2023-04-25T07:47:05;7.60;;;3.17;;
31298;SDS011;17927;52.350;13.402;2023-04-25T07:49:34;8.00;;;2.90;;
31298;SDS011;17927;52.350;13.402;2023-04-25T07:52:05;8.52;;;2.60;;
31298;SDS011;17927;52.350;13.402;2023-04-25T07:54:34;5.80;;;2.80;;
31298;SDS011;17927;52.350;13.402;2023-04-25T07:56:59;6.80;;;2.80;;
31298;SDS011;17927;52.350;13.402;2023-04-25T07:59:24;14.68;;;4.40;;
31298;SDS011;17927;52.350;13.402;2023-04-25T08:01:50;12.15;;;2.90;;
31298;SDS011;17927;52.350;13.402;2023-04-25T08:04:15;4.28;;;3.20;;
31298;SDS011;17927;52.350;13.402;2023-04-25T08:06:41;10.20;;;3.03;;
31298;SDS011;17927;52.350;13.402;2023-04-25T08:09:06;9.70;;;2.75;;
31298;SDS011;17927;52.350;13.402;2023-04-25T08:11:33;19.50;;;3.10;;
31298;SDS011;17927;52.350;13.402;2023-04-25T08:13:58;12.93;;;3.10;;
31298;SDS011;17927;52.350;13.402;2023-04-25T08:16:24;10.18;;;2.65;;
31298;SDS011;17927;52.350;13.402;2023-04-25T08:18:50;12.15;;;2.85;;
31298;SDS011;17927;52.350;13.402;2023-04-25T08:21:15;19.10;;;3.55;;
31298;SDS011;17927;52.350;13.402;2023-04-25T08:23:40;8.02;;;3.22;;
31298;SDS011;17927;52.350;13.402;2023-04-25T08:26:06;9.10;;;4.00;;
31298;SDS011;17927;52.350;13.402;2023-04-25T08:28:32;9.10;;;3.78;;
31298;SDS011;17927;52.350;13.402;2023-04-25T08:30:57;14.40;;;4.07;;
31298;SDS011;17927;52.350;13.402;2023-04-25T08:33:22;10.65;;;3.15;;
31298;SDS011;17927;52.350;13.402;2023-04-25T08:35:48;7.38;;;3.22;;
31298;SDS011;17927;52.350;13.402;2023-04-25T08:38:13;9.77;;;2.72;;
31298;SDS011;17927;52.350;13.402;2023-04-25T08:40:38;16.20;;;3.15;;
31298;SDS011;17927;52.350;13.402;2023-04-25T08:43:04;8.98;;;3.35;;
31298;SDS011;17927;52.350;13.402;2023-04-25T08:45:36;9.45;;;3.00;;
31298;SDS011;17927;52.350;13.402;2023-04-25T08:48:04;9.23;;;3.28;;
31298;SDS011;17927;52.350;13.402;2023-04-25T08:50:31;8.05;;;2.92;;
31298;SDS011;17927;52.350;13.402;2023-04-25T08:52:56;12.02;;;2.75;;
31298;SDS011;17927;52.350;13.402;2023-04-25T08:55:26;11.63;;;2.70;;
31298;SDS011;17927;52.350;13.402;2023-04-25T08:57:53;14.70;;;3.80;;
31298;SDS011;17927;52.350;13.402;2023-04-25T09:00:19;11.13;;;3.13;;
31298;SDS011;17927;52.350;13.402;2023-04-25T09:02:45;10.57;;;2.60;;
31298;SDS011;17927;52.350;13.402;2023-04-25T09:05:12;9.57;;;2.80;;
31298;SDS011;17927;52.350;13.402;2023-04-25T09:07:38;11.07;;;2.63;;
31298;SDS011;17927;52.350;13.402;2023-04-25T09:10:03;12.07;;;2.80;;
31298;SDS011;17927;52.350;13.402;2023-04-25T09:12:29;10.32;;;3.08;;
31298;SDS011;17927;52.350;13.402;2023-04-25T09:15:11;7.75;;;2.10;;
31298;SDS011;17927;52.350;13.402;2023-04-25T09:17:37;7.70;;;2.65;;
31298;SDS011;17927;52.350;13.402;2023-04-25T09:20:09;15.52;;;3.47;;
31298;SDS011;17927;52.350;13.402;2023-04-25T09:22:37;10.57;;;2.72;;
31298;SDS011;17927;52.350;13.402;2023-04-25T09:25:03;12.65;;;2.75;;
31298;SDS011;17927;52.350;13.402;2023-04-25T09:27:32;14.15;;;3.00;;
31298;SDS011;17927;52.350;13.402;2023-04-25T09:29:58;13.57;;;2.35;;
31298;SDS011;17927;52.350;13.402;2023-04-25T09:32:26;9.73;;;2.45;;
31298;SDS011;17927;52.350;13.402;2023-04-25T09:34:52;11.90;;;2.92;;
31298;SDS011;17927;52.350;13.402;2023-04-25T09:37:20;8.20;;;2.25;;
31298;SDS011;17927;52.350;13.402;2023-04-25T09:39:50;10.77;;;2.50;;
31298;SDS011;17927;52.350;13.402;2023-04-25T09:42:18;10.13;;;3.22;;
31298;SDS011;17927;52.350;13.402;2023-04-25T09:44:47;9.48;;;2.95;;
31298;SDS011;17927;52.350;13.402;2023-04-25T09:47:15;6.50;;;2.55;;
31298;SDS011;17927;52.350;13.402;2023-04-25T09:49:46;9.57;;;3.05;;
31298;SDS011;17927;52.350;13.402;2023-04-25T09:52:15;8.15;;;2.78;;
31298;SDS011;17927;52.350;13.402;2023-04-25T09:54:42;7.93;;;2.78;;
31298;SDS011;17927;52.350;13.402;2023-04-25T09:57:15;6.82;;;2.38;;
31298;SDS011;17927;52.350;13.402;2023-04-25T09:59:45;11.40;;;2.85;;
31298;SDS011;17927;52.350;13.402;2023-04-25T10:02:13;12.05;;;2.55;;
31298;SDS011;17927;52.350;13.402;2023-04-25T10:04:39;12.15;;;3.05;;
31298;SDS011;17927;52.350;13.402;2023-04-25T10:07:07;10.63;;;2.92;;
31298;SDS011;17927;52.350;13.402;2023-04-25T10:09:33;8.30;;;2.97;;
31298;SDS011;17927;52.350;13.402;2023-04-25T10:12:01;8.07;;;2.97;;
31298;SDS011;17927;52.350;13.402;2023-04-25T10:14:28;9.38;;;3.03;;
31298;SDS011;17927;52.350;13.402;2023-04-25T10:16:55;12.38;;;2.60;;
31298;SDS011;17927;52.350;13.402;2023-04-25T10:19:21;8.10;;;2.45;;
31298;SDS011;17927;52.350;13.402;2023-04-25T10:21:51;8.40;;;2.47;;
31298;SDS011;17927;52.350;13.402;2023-04-25T10:24:20;10.13;;;2.60;;
31298;SDS011;17927;52.350;13.402;2023-04-25T10:26:46;10.57;;;2.55;;
31298;SDS011;17927;52.350;13.402;2023-04-25T10:29:15;6.40;;;2.60;;
31298;SDS011;17927;52.350;13.402;2023-04-25T10:31:46;8.38;;;2.92;;
31298;SDS011;17927;52.350;13.402;2023-04-25T10:34:12;9.05;;;2.45;;
31298;SDS011;17927;52.350;13.402;2023-04-25T10:36:37;11.65;;;2.97;;
31298;SDS011;17927;52.350;13.402;2023-04-25T10:39:04;7.80;;;2.53;;
31298;SDS011;17927;52.350;13.402;2023-04-25T10:41:46;9.52;;;2.80;;
31298;SDS011;17927;52.350;13.402;2023-04-25T10:44:13;5.45;;;2.08;;
31298;SDS011;17927;52.350;13.402;2023-04-25T10:46:39;7.93;;;2.25;;
31298;SDS011;17927;52.350;13.402;2023-04-25T10:49:04;8.30;;;2.42;;
31298;SDS011;17927;52.350;13.402;2023-04-25T10:51:33;5.88;;;2.55;;
31298;SDS011;17927;52.350;13.402;2023-04-25T10:54:02;10.18;;;2.63;;
31298;SDS011;17927;52.350;13.402;2023-04-25T10:56:30;12.73;;;2.30;;
31298;SDS011;17927;52.350;13.402;2023-04-25T10:59:07;6.03;;;2.08;;
31298;SDS011;17927;52.350;13.402;2023-04-25T11:01:37;5.90;;;2.22;;
31298;SDS011;17927;52.350;13.402;2023-04-25T11:04:06;4.82;;;2.15;;
31298;SDS011;17927;52.350;13.402;2023-04-25T11:09:19;15.35;;;3.03;;
31298;SDS011;17927;52.350;13.402;2023-04-25T11:11:55;11.45;;;2.58;;
31298;SDS011;17927;52.350;13.402;2023-04-25T11:14:21;4.00;;;1.58;;
31298;SDS011;17927;52.350;13.402;2023-04-25T11:16:47;8.40;;;2.40;;
31298;SDS011;17927;52.350;13.402;2023-04-25T11:19:12;10.15;;;2.47;;
31298;SDS011;17927;52.350;13.402;2023-04-25T11:21:38;3.63;;;1.70;;
31298;SDS011;17927;52.350;13.402;2023-04-25T11:24:03;6.40;;;2.55;;
31298;SDS011;17927;52.350;13.402;2023-04-25T11:26:29;10.25;;;2.28;;
31298;SDS011;17927;52.350;13.402;2023-04-25T11:28:58;8.25;;;2.70;;
31298;SDS011;17927;52.350;13.402;2023-04-25T11:31:25;8.00;;;2.58;;
31298;SDS011;17927;52.350;13.402;2023-04-25T11:33:50;9.02;;;2.47;;
31298;SDS011;17927;52.350;13.402;2023-04-25T11:36:18;8.73;;;2.45;;
31298;SDS011;17927;52.350;13.402;2023-04-25T11:38:43;5.35;;;2.08;;
31298;SDS011;17927;52.350;13.402;2023-04-25T11:41:09;4.15;;;2.28;;
31298;SDS011;17927;52.350;13.402;2023-04-25T11:43:34;7.30;;;2.78;;
31298;SDS011;17927;52.350;13.402;2023-04-25T11:45:59;5.65;;;2.63;;
31298;SDS011;17927;52.350;13.402;2023-04-25T11:48:25;4.78;;;2.13;;
31298;SDS011;17927;52.350;13.402;2023-04-25T11:50:50;3.05;;;2.08;;
31298;SDS011;17927;52.350;13.402;2023-04-25T11:53:17;5.63;;;2.05;;
31298;SDS011;17927;52.350;13.402;2023-04-25T11:55:42;8.23;;;1.90;;
31298;SDS011;17927;52.350;13.402;2023-04-25T11:58:08;3.72;;;2.22;;
31298;SDS011;17927;52.350;13.402;2023-04-25T12:00:33;6.97;;;1.80;;
31298;SDS011;17927;52.350;13.402;2023-04-25T12:02:59;5.43;;;2.05;;
31298;SDS011;17927;52.350;13.402;2023-04-25T12:05:29;5.25;;;1.83;;
31298;SDS011;17927;52.350;13.402;2023-04-25T12:07:55;9.88;;;2.03;;
31298;SDS011;17927;52.350;13.402;2023-04-25T12:10:21;5.90;;;2.30;;
31298;SDS011;17927;52.350;13.402;2023-04-25T12:12:49;5.30;;;2.10;;
31298;SDS011;17927;52.350;13.402;2023-04-25T12:15:15;7.60;;;1.80;;
31298;SDS011;17927;52.350;13.402;2023-04-25T12:17:44;10.05;;;2.03;;
31298;SDS011;17927;52.350;13.402;2023-04-25T12:20:12;4.50;;;2.67;;
31298;SDS011;17927;52.350;13.402;2023-04-25T12:22:43;5.47;;;2.05;;
31298;SDS011;17927;52.350;13.402;2023-04-25T12:25:13;8.27;;;1.90;;
31298;SDS011;17927;52.350;13.402;2023-04-25T12:28:09;9.00;;;1.70;;
31298;SDS011;17927;52.350;13.402;2023-04-25T12:33:37;5.50;;;1.77;;
31298;SDS011;17927;52.350;13.402;2023-04-25T12:36:03;11.52;;;2.28;;
31298;SDS011;17927;52.350;13.402;2023-04-25T12:38:35;4.18;;;1.50;;
31298;SDS011;17927;52.350;13.402;2023-04-25T12:41:02;8.02;;;2.78;;
31298;SDS011;17927;52.350;13.402;2023-04-25T12:43:27;5.90;;;1.88;;
31298;SDS011;17927;52.350;13.402;2023-04-25T12:45:53;4.97;;;1.83;;
31298;SDS011;17927;52.350;13.402;2023-04-25T12:48:19;5.75;;;1.70;;
31298;SDS011;17927;52.350;13.402;2023-04-25T12:50:45;5.95;;;1.65;;
31298;SDS011;17927;52.350;13.402;2023-04-25T12:53:12;7.45;;;2.05;;
31298;SDS011;17927;52.350;13.402;2023-04-25T12:55:38;6.10;;;2.15;;
31298;SDS011;17927;52.350;13.402;2023-04-25T12:58:03;3.65;;;1.55;;
31298;SDS011;17927;52.350;13.402;2023-04-25T13:00:29;5.32;;;2.22;;
31298;SDS011;17927;52.350;13.402;2023-04-25T13:02:54;5.57;;;2.17;;
31298;SDS011;17927;52.350;13.402;2023-04-25T13:05:20;4.55;;;1.77;;
31298;SDS011;17927;52.350;13.402;2023-04-25T13:07:45;5.68;;;2.00;;
31298;SDS011;17927;52.350;13.402;2023-04-25T13:10:10;6.45;;;1.40;;
31298;SDS011;17927;52.350;13.402;2023-04-25T13:12:36;5.97;;;2.05;;
31298;SDS011;17927;52.350;13.402;2023-04-25T13:15:01;3.85;;;1.88;;
31298;SDS011;17927;52.350;13.402;2023-04-25T13:17:26;3.70;;;1.95;;
31298;SDS011;17927;52.350;13.402;2023-04-25T13:19:52;8.85;;;2.25;;
31298;SDS011;17927;52.350;13.402;2023-04-25T13:22:17;5.95;;;2.45;;
31298;SDS011;17927;52.350;13.402;2023-04-25T13:24:44;6.75;;;2.05;;
31298;SDS011;17927;52.350;13.402;2023-04-25T13:27:10;4.75;;;2.42;;
31298;SDS011;17927;52.350;13.402;2023-04-25T13:29:35;4.07;;;1.70;;
31298;SDS011;17927;52.350;13.402;2023-04-25T13:32:03;5.85;;;2.00;;
31298;SDS011;17927;52.350;13.402;2023-04-25T13:34:28;8.55;;;2.05;;
31298;SDS011;17927;52.350;13.402;2023-04-25T13:36:54;4.85;;;1.48;;
31298;SDS011;17927;52.350;13.402;2023-04-25T13:39:19;3.75;;;2.28;;
31298;SDS011;17927;52.350;13.402;2023-04-25T13:41:45;7.78;;;2.75;;
31298;SDS011;17927;52.350;13.402;2023-04-25T13:44:10;3.97;;;1.90;;
31298;SDS011;17927;52.350;13.402;2023-04-25T13:46:35;4.30;;;1.95;;
31298;SDS011;17927;52.350;13.402;2023-04-25T13:49:02;6.30;;;1.73;;
31298;SDS011;17927;52.350;13.402;2023-04-25T13:51:27;6.75;;;2.55;;
31298;SDS011;17927;52.350;13.402;2023-04-25T13:53:53;3.30;;;1.20;;
31298;SDS011;17927;52.350;13.402;2023-04-25T13:56:18;4.07;;;1.63;;
31298;SDS011;17927;52.350;13.402;2023-04-25T13:58:44;6.90;;;2.05;;
31298;SDS011;17927;52.350;13.402;2023-04-25T14:01:10;6.15;;;2.60;;
31298;SDS011;17927;52.350;13.402;2023-04-25T14:03:35;3.47;;;1.65;;
31298;SDS011;17927;52.350;13.402;2023-04-25T14:06:00;3.20;;;1.60;;
31298;SDS011;17927;52.350;13.402;2023-04-25T14:08:26;2.47;;;2.00;;
31298;SDS011;17927;52.350;13.402;2023-04-25T14:10:51;6.78;;;1.98;;
31298;SDS011;17927;52.350;13.402;2023-04-25T14:13:16;4.80;;;1.80;;
31298;SDS011;17927;52.350;13.402;2023-04-25T14:15:42;5.75;;;1.88;;
31298;SDS011;17927;52.350;13.402;2023-04-25T14:18:07;3.25;;;1.65;;
31298;SDS011;17927;52.350;13.402;2023-04-25T14:20:32;5.45;;;1.63;;
31298;SDS011;17927;52.350;13.402;2023-04-25T14:22:57;5.07;;;2.13;;
31298;SDS011;17927;52.350;13.402;2023-04-25T14:25:23;5.57;;;2.08;;
31298;SDS011;17927;52.350;13.402;2023-04-25T14:27:49;6.93;;;1.85;;
31298;SDS011;17927;52.350;13.402;2023-04-25T14:30:18;4.47;;;2.17;;
31298;SDS011;17927;52.350;13.402;2023-04-25T14:32:44;5.40;;;2.85;;